Terminal Aerodrome Forecast
Issued by NWS

Home | Current Version | Previous Version | Text Only | Print | Product List | Glossary On
Versions: 1 2 3 4 5 6 7 8 9 10 11 12 13 14 15 16 17 18 19 20
284
FTPA31 PHFO 232339
TAFHTO
TAF
PHTO 232339Z 2400/2424 01012KT P6SM FEW035 SCT060
     FM240500 25005KT P6SM BKN060
     FM241200 VRB04KT P6SM VCSH SCT020 BKN035
     FM242000 10007KT P6SM BKN050=

USA.gov is the U.S. government's official web portal to all federal, state and local government web resources and services.